This is the latest recevied weather packets stored in our database for station/object MM1PTT-13. If no packets are shown the sender has not sent any weather packets the latest 1 day(s).
| Time | Temp. | Humidity | Pressure | Rain* | Wind** | Luminosity | Snow |
|---|---|---|---|---|---|---|---|
| 1777994442 | 10° C | 65% | 987.1 hPa | 0 mm | 4.02 m/s, 16° | 275 W/m² | - |
| 1777994144 | 10.56° C | 65% | 987.1 hPa | 0 mm | 2.68 m/s, 37° | 300 W/m² | - |
| 1777993845 | 10.56° C | 66% | 987.5 hPa | 0 mm | 2.68 m/s, 4° | 335 W/m² | - |
| 1777993544 | 10.56° C | 67% | 987.5 hPa | 0 mm | 1.34 m/s, 139° | 328 W/m² | - |
| 1777993243 | 10.56° C | 67% | 987.1 hPa | 0 mm | 2.24 m/s, 103° | 307 W/m² | - |
| 1777992943 | 10.56° C | 66% | 987.1 hPa | 0 mm | 4.02 m/s, 68° | 321 W/m² | - |
| 1777992643 | 10.56° C | 66% | 987.1 hPa | 0 mm | 3.58 m/s, 38° | 365 W/m² | - |
| 1777992343 | 10.56° C | 64% | 987.5 hPa | 0 mm | 4.02 m/s, 41° | 352 W/m² | - |
| 1777992043 | 10.56° C | 66% | 986.8 hPa | 0 mm | 3.13 m/s, 150° | 383 W/m² | - |
| 1777991743 | 10° C | 66% | 987.1 hPa | 0 mm | 3.58 m/s, 49° | 295 W/m² | - |
| 1777991443 | 10.56° C | 66% | 987.1 hPa | 0 mm | 2.24 m/s, 104° | 399 W/m² | - |
| 1777991144 | 10.56° C | 65% | 986.8 hPa | 0 mm | 2.68 m/s, 335° | 314 W/m² | - |
| 1777990845 | 10.56° C | 65% | 987.1 hPa | 0 mm | 1.34 m/s, 136° | 339 W/m² | - |
| 1777990543 | 11.11° C | 64% | 987.1 hPa | 0 mm | 3.13 m/s, 164° | 473 W/m² | - |
| 1777990243 | 11.67° C | 63% | 987.1 hPa | 0 mm | 3.58 m/s, 83° | 616 W/m² | - |
| 1777989943 | 11.11° C | 64% | 987.1 hPa | 0 mm | 5.36 m/s, 71° | 877 W/m² | - |
| 1777989643 | 10.56° C | 65% | 986.8 hPa | 0 mm | 4.47 m/s, 36° | 321 W/m² | - |
| 1777989346 | 11.11° C | 67% | 987.1 hPa | 0 mm | 1.34 m/s, 53° | 596 W/m² | - |
| 1777989045 | 10° C | 65% | 986.8 hPa | 0 mm | 3.13 m/s, 40° | 335 W/m² | - |
| 1777988743 | 10.56° C | 67% | 986.8 hPa | 0 mm | 2.68 m/s, 66° | 302 W/m² | - |
| 1777988443 | 10.56° C | 67% | 986.5 hPa | 0 mm | 1.79 m/s, 73° | 337 W/m² | - |
| 1777988143 | 11.11° C | 66% | 986.8 hPa | 0 mm | 3.13 m/s, 50° | 348 W/m² | - |
| 1777987842 | 11.11° C | 68% | 986.8 hPa | 0 mm | 3.13 m/s, 37° | 338 W/m² | - |
| 1777987544 | 10.56° C | 67% | 986.8 hPa | 0 mm | 4.02 m/s, 61° | 330 W/m² | - |
| 1777987245 | 10.56° C | 67% | 986.8 hPa | 0 mm | 4.92 m/s, 14° | 312 W/m² | - |
* Rain latest hour (hover to see other rain measurements)
** Current wind speed in m/s (hover to see current wind gust speed)